Flight Track Log - Related Links

Times and Time Zones

All times are in EDT time to prevent confusion due to time zone crossing. See the N6199B flight status page for this flight to view local times or setup timezone preferences in your user account.

Time Position Orientation Groundspeed Altitude Reporting Facility
EDT Latitude Longitude Course Direction KTS MPH feet Rate Location/Type
Wed 12:04:39 PM 26.2047 -80.1828 262° West 80 92 400  Level Miami Center
Wed 12:05:59 PM 26.2008 -80.2125 262° West 87 100 1,200 516 Climbing Miami Center
Wed 12:06:12 PM 26.1981 -80.2161 229° Southwest 82 94 1,200 448 Level Miami Center
Wed 12:07:06 PM 26.1908 -80.2397 251° West 77 89 1,700 626 Climbing Miami Center
Wed 12:08:07 PM 26.1850 -80.2647 255° West 82 94 2,400 414 Climbing Miami Center
Wed 12:09:02 PM 26.1772 -80.2897 251° West 97 112 2,500 83 Climbing Miami Center
Wed 12:09:19 PM 26.1781 -80.2922 290° West 89 102 2,500 90 Level Miami Center
Wed 12:10:09 PM 26.1792 -80.3222 272° West 99 114 2,600 97 Climbing Miami Center
Wed 12:10:21 PM 26.1792 -80.3228 270° West 95 109 2,600 -109 Level Miami Center
Wed 12:11:04 PM 26.1775 -80.3500 266° West 94 108 2,500 -97 Descending Miami Center
Wed 12:11:23 PM 26.1783 -80.3575 277° West 95 109 2,500  Level Miami Center
Wed 12:12:11 PM 26.1775 -80.3825 268° West 96 110 2,500  Level Miami Center
Wed 12:12:25 PM 26.1775 -80.3872 270° West 95 109 2,500  Level Miami Center
Wed 12:13:12 PM 26.1775 -80.4150 270° West 105 121 2,500  Level Miami Center
Wed 12:13:27 PM 26.1789 -80.4183 295° West 100 115 2,500 -109 Level Miami Center
Wed 12:14:07 PM 26.1758 -80.4428 262° West 98 113 2,400 -97 Descending Miami Center
Wed 12:14:29 PM 26.1767 -80.4489 279° West 99 114 2,400  Level Miami Center
Wed 12:15:08 PM 26.1739 -80.4728 263° West 97 112 2,400  Level Miami Center
Wed 12:15:32 PM 26.1744 -80.4781 277° West 99 114 2,400  Level Miami Center
Wed 12:16:10 PM 26.1742 -80.5006 269° West 94 108 2,400 97 Level Miami Center
Wed 12:16:34 PM 26.1750 -80.5131 274° West 96 110 2,500 100 Climbing Miami Center
Wed 12:17:10 PM 26.1742 -80.5331 267° West 99 114 2,500  Level Miami Center
Wed 12:17:36 PM 26.1744 -80.5447 272° West 97 112 2,500  Level Miami Center
Wed 12:18:11 PM 26.1742 -80.5633 269° West 95 109 2,500  Level Miami Center
Wed 12:18:38 PM 26.1742 -80.5736 270° West 97 112 2,500  Level Miami Center
Wed 12:19:06 PM 26.1744 -80.5914 271° West 96 110 2,500  Level Miami Center
Wed 12:19:40 PM 26.1731 -80.6025 262° West 95 109 2,500  Level Miami Center
Wed 12:20:13 PM 26.1744 -80.6239 274° West 97 112 2,500  Level Miami Center
Wed 12:20:42 PM 26.1742 -80.6336 268° West 95 109 2,500  Level Miami Center
Wed 12:21:14 PM 26.1725 -80.6539 265° West 98 113 2,500 -95 Level Miami Center
Wed 12:21:45 PM 26.1733 -80.6622 276° West 95 109 2,400 -97 Descending Miami Center
Wed 12:22:16 PM 26.1747 -80.6842 274° West 98 113 2,400 -97 Level Miami Center
Wed 12:22:47 PM 26.1747 -80.6989 270° West 96 110 2,300  Descending Miami Center
Wed 12:23:17 PM 26.1747 -80.7167 270° West 97 112 2,400 194 Climbing Miami Center
Wed 12:23:49 PM 26.1736 -80.7297 265° West 96 110 2,500 64 Climbing Miami Center
Wed 12:24:51 PM 26.1719 -80.7583 266° West 96 110 2,500  Level Miami Center
Wed 12:25:54 PM 26.1706 -80.7894 267° West 96 110 2,500  Level Miami Center
Wed 12:26:55 PM 26.1703 -80.8200 269° West 96 110 2,500  Level Miami Center
Wed 12:27:58 PM 26.1678 -80.8550 265° West 95 109 2,500  Level Miami Center
Wed 12:29:00 PM 26.1664 -80.8847 267° West 95 109 2,500  Level Miami Center
Wed 12:30:02 PM 26.1669 -80.9133 271° West 94 108 2,500  Level Miami Center
Wed 12:31:04 PM 26.1661 -80.9442 268° West 95 109 2,500  Level Miami Center
Wed 12:32:06 PM 26.1650 -80.9767 268° West 105 121 2,500 -48 Level Miami Center
Wed 12:33:09 PM 26.1656 -81.0108 271° West 94 108 2,400 -48 Descending Miami Center
Wed 12:34:11 PM 26.1633 -81.0394 265° West 92 106 2,400 48 Level Miami Center
Wed 12:35:13 PM 26.1628 -81.0714 269° West 93 107 2,500 48 Climbing Miami Center
Wed 12:36:15 PM 26.1631 -81.0992 271° West 91 105 2,500  Level Miami Center
Wed 12:37:18 PM 26.1608 -81.1311 266° West 95 109 2,500  Level Miami Center
Wed 12:38:20 PM 26.1583 -81.1647 265° West 106 122 2,500 -48 Level Miami Center
Wed 12:39:22 PM 26.1572 -81.1961 268° West 105 121 2,400  Descending Miami Center
Wed 12:40:25 PM 26.1550 -81.2306 266° West 104 120 2,500 48 Climbing Miami Center
Wed 12:41:27 PM 26.1542 -81.2614 268° West 102 117 2,500 -48 Level Miami Center
Wed 12:42:29 PM 26.1519 -81.2961 266° West 103 119 2,400 -97 Descending Miami Center
Wed 12:44:00 PM 26.1510 -81.3387 269° West  Level FlightAware Approximate
Wed 12:51:00 PM 26.1500 -81.5350 270° West  Level FlightAware Approximate
Wed 12:52:00 PM 26.1500 -81.5631 270° West  Level FlightAware Approximate

Login

Don't have an account? Register now (free) for customized features, flight alerts, and more!